createdAt,value
2022-08-21T00:01:40.037Z,99.90
2022-08-21T00:04:08.326Z,99.90
2022-08-21T00:06:36.386Z,99.90
2022-08-21T00:09:06.684Z,99.90
2022-08-21T00:11:36.083Z,99.90
2022-08-21T00:14:04.173Z,99.90
2022-08-21T00:16:31.369Z,99.90
2022-08-21T00:18:58.200Z,99.90
2022-08-21T00:21:26.187Z,99.90
2022-08-21T00:23:53.438Z,99.90
2022-08-21T00:26:20.310Z,99.90
2022-08-21T00:28:49.818Z,99.90
2022-08-21T00:31:17.742Z,99.90
2022-08-21T00:33:45.334Z,99.90
2022-08-21T00:36:12.633Z,99.90
2022-08-21T00:38:39.578Z,99.90
2022-08-21T00:41:13.447Z,99.90
2022-08-21T00:43:57.491Z,99.90
2022-08-21T00:46:24.878Z,99.90
2022-08-21T00:48:57.310Z,99.90
2022-08-21T00:51:38.251Z,99.90
2022-08-21T00:54:12.948Z,99.90
2022-08-21T00:56:49.301Z,99.90
2022-08-21T00:59:18.937Z,99.90
2022-08-21T01:01:46.303Z,99.90
2022-08-21T01:04:13.270Z,99.90
2022-08-21T01:06:40.621Z,99.90
2022-08-21T01:09:07.642Z,99.90
2022-08-21T01:11:34.486Z,99.90
2022-08-21T01:14:01.925Z,99.90
2022-08-21T01:16:29.571Z,99.90
2022-08-21T01:18:56.476Z,99.90
2022-08-21T01:21:28.130Z,99.90
2022-08-21T01:23:57.836Z,99.90
2022-08-21T01:26:34.415Z,99.90
2022-08-21T01:29:22.995Z,99.90
2022-08-21T01:31:50.445Z,99.90
2022-08-21T01:34:17.610Z,99.90
2022-08-21T01:36:46.837Z,99.90
2022-08-21T01:39:13.798Z,99.90
2022-08-21T01:41:40.709Z,99.90
2022-08-21T01:44:07.762Z,99.90
2022-08-21T01:46:34.741Z,99.90
2022-08-21T01:49:01.706Z,99.90
2022-08-21T01:51:28.579Z,99.90
2022-08-21T01:53:55.433Z,99.90
2022-08-21T01:56:22.799Z,99.90
2022-08-21T01:58:49.728Z,99.90
2022-08-21T02:01:17.036Z,99.90
2022-08-21T02:03:43.997Z,99.90
2022-08-21T02:06:15.947Z,99.90
2022-08-21T02:08:42.860Z,99.90
2022-08-21T02:11:09.755Z,99.90
2022-08-21T02:13:36.692Z,99.90
2022-08-21T02:16:04.379Z,99.90
2022-08-21T02:18:31.282Z,99.90
2022-08-21T02:20:58.269Z,99.90
2022-08-21T02:23:26.681Z,99.90
2022-08-21T02:25:55.684Z,99.90
2022-08-21T02:28:22.625Z,99.90
2022-08-21T02:30:50.354Z,99.90
2022-08-21T02:33:17.594Z,99.90
2022-08-21T02:35:47.278Z,99.90
2022-08-21T02:38:17.609Z,99.90
2022-08-21T02:40:48.420Z,99.90
2022-08-21T02:43:20.374Z,99.90
2022-08-21T02:45:48.485Z,99.90
2022-08-21T02:48:25.173Z,99.90
2022-08-21T02:50:58.695Z,99.90
2022-08-21T02:53:26.441Z,99.90
2022-08-21T02:55:54.222Z,99.90
2022-08-21T02:58:27.215Z,99.90
2022-08-21T03:00:55.092Z,99.90
2022-08-21T03:03:22.208Z,99.90
2022-08-21T03:05:49.676Z,99.90
2022-08-21T03:08:17.409Z,99.90
2022-08-21T03:10:47.402Z,99.90
2022-08-21T03:13:15.876Z,99.90
2022-08-21T03:15:43.444Z,99.90
2022-08-21T03:18:11.468Z,99.90
2022-08-21T03:20:39.674Z,99.90
2022-08-21T03:23:12.500Z,99.90
2022-08-21T03:25:42.110Z,99.90
2022-08-21T03:28:13.769Z,99.90
2022-08-21T03:30:42.803Z,99.90
2022-08-21T03:33:10.385Z,99.90
2022-08-21T03:35:41.508Z,99.90
2022-08-21T03:38:08.732Z,99.90
2022-08-21T03:40:36.025Z,99.90
2022-08-21T03:43:02.874Z,99.90
2022-08-21T03:45:30.014Z,99.90
2022-08-21T03:47:56.931Z,99.90
2022-08-21T03:50:25.682Z,99.90
2022-08-21T03:52:52.578Z,99.90
2022-08-21T03:55:19.596Z,99.90
2022-08-21T03:57:46.529Z,99.90
2022-08-21T04:00:15.545Z,99.90
2022-08-21T04:02:44.645Z,99.90
2022-08-21T04:05:13.071Z,99.90
2022-08-21T04:07:40.480Z,99.90
2022-08-21T04:10:08.888Z,99.90
2022-08-21T04:12:35.861Z,99.90
2022-08-21T04:15:03.001Z,99.90
2022-08-21T04:17:29.933Z,99.90
2022-08-21T04:19:57.471Z,99.90
2022-08-21T04:22:24.300Z,99.90
2022-08-21T04:24:51.169Z,99.90
2022-08-21T04:27:18.017Z,99.90
2022-08-21T04:29:44.838Z,99.90
2022-08-21T04:32:11.694Z,99.90
2022-08-21T04:34:38.587Z,99.90
2022-08-21T04:37:05.519Z,99.90
2022-08-21T04:39:32.414Z,99.90
2022-08-21T04:41:59.260Z,99.90
2022-08-21T04:44:26.133Z,99.90
2022-08-21T04:46:53.006Z,99.90
2022-08-21T04:49:19.825Z,99.90
2022-08-21T04:51:46.758Z,99.90
2022-08-21T04:54:19.949Z,99.90
2022-08-21T04:56:52.022Z,99.90
2022-08-21T04:59:23.507Z,99.90
2022-08-21T05:01:51.830Z,99.90
2022-08-21T05:04:23.509Z,99.90
2022-08-21T05:06:51.957Z,99.90
2022-08-21T05:09:35.423Z,99.90
2022-08-21T05:12:05.768Z,99.90
2022-08-21T05:14:32.695Z,99.90
2022-08-21T05:16:59.951Z,99.90
2022-08-21T05:19:26.938Z,99.90
2022-08-21T05:21:54.203Z,99.90
2022-08-21T05:24:21.053Z,99.90
2022-08-21T05:26:48.169Z,99.90
2022-08-21T05:29:16.960Z,99.90
2022-08-21T05:31:46.089Z,99.90
2022-08-21T05:34:16.236Z,99.90
2022-08-21T05:36:44.071Z,99.90
2022-08-21T05:39:11.067Z,99.90
2022-08-21T05:41:37.923Z,99.90
2022-08-21T05:44:04.909Z,99.90
2022-08-21T05:46:37.685Z,99.90
2022-08-21T05:49:05.010Z,99.90
2022-08-21T05:51:32.252Z,99.90
2022-08-21T05:53:59.199Z,99.90
2022-08-21T05:56:26.233Z,99.90
2022-08-21T05:58:53.138Z,99.90
2022-08-21T06:01:20.093Z,99.90
2022-08-21T06:03:47.004Z,99.90
2022-08-21T06:06:13.863Z,99.90
2022-08-21T06:08:40.760Z,99.90
2022-08-21T06:11:07.882Z,99.90
2022-08-21T06:13:35.829Z,99.90
2022-08-21T06:16:07.607Z,99.90
2022-08-21T06:18:35.827Z,99.90
2022-08-21T06:21:03.046Z,99.90
2022-08-21T06:23:33.170Z,99.90
2022-08-21T06:26:00.813Z,99.90
2022-08-21T06:28:28.381Z,99.90
2022-08-21T06:30:55.811Z,99.90
2022-08-21T06:33:22.669Z,99.90
2022-08-21T06:35:52.727Z,99.90
2022-08-21T06:38:20.503Z,99.90
2022-08-21T06:40:48.116Z,99.90
2022-08-21T06:43:18.059Z,99.90
2022-08-21T06:45:48.119Z,99.90
2022-08-21T06:48:19.120Z,99.90
2022-08-21T06:50:47.648Z,99.90
2022-08-21T06:53:17.776Z,99.90
2022-08-21T06:55:45.160Z,99.90
2022-08-21T06:58:13.172Z,99.90
2022-08-21T07:00:42.719Z,99.90
2022-08-21T07:03:28.402Z,99.90
2022-08-21T07:05:57.878Z,99.90
2022-08-21T07:08:25.539Z,99.90
2022-08-21T07:10:53.544Z,99.90
2022-08-21T07:13:20.566Z,99.90
2022-08-21T07:15:47.481Z,99.90
2022-08-21T07:18:14.735Z,99.90
2022-08-21T07:20:42.198Z,99.90
2022-08-21T07:23:31.954Z,99.90
2022-08-21T07:26:02.667Z,99.90
2022-08-21T07:28:31.488Z,99.90
2022-08-21T07:31:00.999Z,99.90
2022-08-21T07:33:32.107Z,99.90
2022-08-21T07:35:59.134Z,99.90
2022-08-21T07:38:26.780Z,99.90
2022-08-21T07:40:57.312Z,99.90
2022-08-21T07:43:27.357Z,99.90
2022-08-21T07:45:55.090Z,99.90
2022-08-21T07:48:23.322Z,99.90
2022-08-21T07:50:51.070Z,99.90
2022-08-21T07:53:18.151Z,99.90
2022-08-21T07:55:45.455Z,99.90
2022-08-21T07:58:12.297Z,99.90
2022-08-21T08:00:40.329Z,99.90
2022-08-21T08:03:07.338Z,99.90
2022-08-21T08:05:36.292Z,99.90
2022-08-21T08:08:03.384Z,99.90
2022-08-21T08:10:30.707Z,99.90
2022-08-21T08:12:57.815Z,99.90
2022-08-21T08:15:27.533Z,99.90
2022-08-21T08:17:55.914Z,99.90
2022-08-21T08:20:23.972Z,99.90
2022-08-21T08:22:51.380Z,99.90
2022-08-21T08:25:20.177Z,99.90
2022-08-21T08:27:47.196Z,99.90
2022-08-21T08:30:16.393Z,99.90
2022-08-21T08:32:43.715Z,99.90
2022-08-21T08:35:11.778Z,99.90
2022-08-21T08:37:41.869Z,99.90
2022-08-21T08:40:16.075Z,99.90
2022-08-21T08:42:43.724Z,99.90
2022-08-21T08:45:13.959Z,99.90
2022-08-21T08:47:48.623Z,99.90
2022-08-21T08:50:27.124Z,99.90
2022-08-21T08:53:05.952Z,99.90
2022-08-21T08:55:38.729Z,99.90
2022-08-21T08:58:06.098Z,99.90
2022-08-21T09:00:34.419Z,99.90
2022-08-21T09:03:03.847Z,99.90
2022-08-21T09:05:49.363Z,99.90
2022-08-21T09:08:40.850Z,99.90
2022-08-21T09:11:45.248Z,99.90
2022-08-21T09:14:38.560Z,99.90
2022-08-21T09:17:25.758Z,99.90
2022-08-21T09:20:19.938Z,99.90
2022-08-21T09:23:07.110Z,99.90
2022-08-21T09:25:58.341Z,99.90
2022-08-21T09:28:25.242Z,99.90
2022-08-21T09:30:56.626Z,99.90
2022-08-21T09:33:24.140Z,99.90
2022-08-21T09:35:58.780Z,99.90
2022-08-21T09:38:33.026Z,99.80
2022-08-21T09:41:06.576Z,97.10
2022-08-21T09:43:34.560Z,95.80
2022-08-21T09:46:13.694Z,94.50
2022-08-21T09:48:43.702Z,93.80
2022-08-21T09:51:20.786Z,90.90
2022-08-21T09:54:24.105Z,89.10
2022-08-21T09:57:16.679Z,81.80
2022-08-21T09:59:45.053Z,84.60
2022-08-21T10:02:32.153Z,81.60
2022-08-21T10:05:04.644Z,73.90
2022-08-21T10:07:33.278Z,71.20
2022-08-21T10:10:17.590Z,69.00
2022-08-21T10:13:02.210Z,65.30
2022-08-21T10:15:40.747Z,64.70
2022-08-21T10:18:38.480Z,65.50
2022-08-21T10:21:23.550Z,65.00
2022-08-21T10:24:01.332Z,66.70
2022-08-21T10:26:31.277Z,61.80
2022-08-21T10:29:10.330Z,61.70
2022-08-21T10:31:58.659Z,62.30
2022-08-21T10:34:40.630Z,65.00
2022-08-21T10:37:29.245Z,66.50
2022-08-21T10:40:11.499Z,66.60
2022-08-21T10:42:53.406Z,66.40
2022-08-21T10:45:23.109Z,64.50
2022-08-21T10:48:02.136Z,64.30
2022-08-21T10:50:37.319Z,62.90
2022-08-21T10:53:28.607Z,61.60
2022-08-21T10:56:09.722Z,66.20
2022-08-21T10:58:46.683Z,61.90
2022-08-21T11:01:33.897Z,63.20
2022-08-21T11:04:20.824Z,61.70
2022-08-21T11:07:35.314Z,65.00
2022-08-21T11:10:27.866Z,62.40
2022-08-21T11:12:57.015Z,62.10
2022-08-21T11:15:49.172Z,61.00
2022-08-21T11:18:29.231Z,62.60
2022-08-21T11:21:37.264Z,63.90
2022-08-21T11:24:40.051Z,65.70
2022-08-21T11:27:09.960Z,64.20
2022-08-21T11:29:39.795Z,64.30
2022-08-21T11:32:21.778Z,64.50
2022-08-21T11:35:20.718Z,61.60
2022-08-21T11:38:19.869Z,65.00
2022-08-21T11:41:22.046Z,67.10
2022-08-21T11:44:14.259Z,66.20
2022-08-21T11:47:10.747Z,67.10
2022-08-21T11:49:37.593Z,65.10
2022-08-21T11:52:14.830Z,65.60
2022-08-21T11:54:47.781Z,65.10
2022-08-21T11:57:20.542Z,65.80
2022-08-21T11:59:50.445Z,66.20
2022-08-21T12:02:22.115Z,65.70
2022-08-21T12:05:08.892Z,66.90
2022-08-21T12:07:36.151Z,67.50
2022-08-21T12:10:07.627Z,64.80
2022-08-21T12:12:38.311Z,65.90
2022-08-21T12:15:23.615Z,68.10
2022-08-21T12:17:53.559Z,66.30
2022-08-21T12:20:50.650Z,65.10
2022-08-21T12:23:25.909Z,62.90
2022-08-21T12:26:11.920Z,63.90
2022-08-21T12:28:40.055Z,64.70
2022-08-21T12:31:19.251Z,65.60
2022-08-21T12:33:55.086Z,66.80
2022-08-21T12:36:26.961Z,66.10
2022-08-21T12:39:00.298Z,66.90
2022-08-21T12:41:39.785Z,65.90
2022-08-21T12:44:12.363Z,67.20
2022-08-21T12:47:16.650Z,67.80
2022-08-21T12:50:13.749Z,68.30
2022-08-21T12:53:20.301Z,66.70
2022-08-21T12:55:47.820Z,67.00
2022-08-21T12:58:23.068Z,68.50
2022-08-21T13:01:08.972Z,65.30
2022-08-21T13:03:38.037Z,66.40
2022-08-21T13:06:06.425Z,65.20
2022-08-21T13:08:40.963Z,66.90
2022-08-21T13:11:15.006Z,66.70
2022-08-21T13:13:45.658Z,65.60
2022-08-21T13:16:25.958Z,64.70
2022-08-21T13:18:59.718Z,66.50
2022-08-21T13:21:36.573Z,63.00
2022-08-21T13:27:42.285Z,63.00
2022-08-21T13:30:25.153Z,61.80
2022-08-21T13:33:13.057Z,61.70
2022-08-21T13:36:03.586Z,61.40
2022-08-21T13:38:49.962Z,61.30
2022-08-21T13:41:34.991Z,61.90
2022-08-21T13:44:44.531Z,58.40
2022-08-21T13:47:05.604Z,59.20
2022-08-21T13:49:43.515Z,59.80
2022-08-21T13:52:35.794Z,59.90
2022-08-21T13:55:25.233Z,59.10
2022-08-21T13:58:05.574Z,57.60
2022-08-21T14:00:45.369Z,57.20
2022-08-21T14:03:17.073Z,56.70
2022-08-21T14:06:01.633Z,58.30
2022-08-21T14:08:57.968Z,57.30
2022-08-21T14:11:36.892Z,55.40
2022-08-21T14:14:28.462Z,56.90
2022-08-21T14:17:24.511Z,55.60
2022-08-21T14:20:03.566Z,54.40
2022-08-21T14:22:54.024Z,56.40
2022-08-21T14:25:27.155Z,56.10
2022-08-21T14:28:09.901Z,56.40
2022-08-21T14:30:53.934Z,55.40
2022-08-21T14:33:34.281Z,57.00
2022-08-21T14:36:14.311Z,51.70
2022-08-21T14:38:52.785Z,52.40
2022-08-21T14:41:26.770Z,53.90
2022-08-21T14:44:08.204Z,54.20
2022-08-21T14:46:55.886Z,54.70
2022-08-21T14:49:36.021Z,56.60
2022-08-21T14:52:08.849Z,56.50
2022-08-21T14:54:41.579Z,56.40
2022-08-21T14:57:16.077Z,57.80
2022-08-21T14:59:53.069Z,58.00
2022-08-21T15:02:33.841Z,59.70
2022-08-21T15:05:32.960Z,60.40
2022-08-21T15:08:08.290Z,61.70
2022-08-21T15:11:10.151Z,62.80
2022-08-21T15:13:39.031Z,64.50
2022-08-21T15:16:11.495Z,65.60
2022-08-21T15:18:45.655Z,64.00
2022-08-21T15:21:13.492Z,64.00
2022-08-21T15:23:43.875Z,63.80
2022-08-21T15:26:18.492Z,62.40
2022-08-21T15:28:51.923Z,63.10
2022-08-21T15:31:34.108Z,62.90
2022-08-21T15:34:07.232Z,63.40
2022-08-21T15:36:47.030Z,62.90
2022-08-21T15:39:31.255Z,61.80
2022-08-21T15:42:10.427Z,60.40
2022-08-21T15:44:46.166Z,61.50
2022-08-21T15:47:26.519Z,61.60
2022-08-21T15:49:56.329Z,62.30
2022-08-21T15:52:29.982Z,62.80
2022-08-21T15:55:03.945Z,64.50
2022-08-21T15:57:36.517Z,65.90
2022-08-21T16:00:33.157Z,66.60
2022-08-21T16:03:12.906Z,63.70
2022-08-21T16:05:58.739Z,63.20
2022-08-21T16:09:03.252Z,62.90
2022-08-21T16:11:37.892Z,62.20
2022-08-21T16:17:13.825Z,61.20
2022-08-21T16:19:59.146Z,59.70
2022-08-21T16:22:44.628Z,62.50
2022-08-21T16:26:09.029Z,60.30
2022-08-21T16:28:49.647Z,59.90
2022-08-21T16:31:28.585Z,61.80
2022-08-21T16:34:05.566Z,59.20
2022-08-21T16:36:48.653Z,58.60
2022-08-21T16:39:38.681Z,58.70
2022-08-21T16:42:25.643Z,58.50
2022-08-21T16:44:59.817Z,61.20
2022-08-21T16:47:33.205Z,61.50
2022-08-21T16:50:08.564Z,59.80
2022-08-21T16:52:48.181Z,58.90
2022-08-21T16:55:19.523Z,61.80
2022-08-21T16:57:53.118Z,61.90
2022-08-21T17:00:23.483Z,61.80
2022-08-21T17:03:01.588Z,62.30
2022-08-21T17:05:32.902Z,62.20
2022-08-21T17:08:05.247Z,62.70
2022-08-21T17:10:33.824Z,62.30
2022-08-21T17:13:09.853Z,61.70
2022-08-21T17:15:42.618Z,62.20
2022-08-21T17:18:23.981Z,62.30
2022-08-21T17:21:01.702Z,64.60
2022-08-21T17:23:44.212Z,64.30
2022-08-21T17:26:31.542Z,62.40
2022-08-21T17:29:04.061Z,62.30
2022-08-21T17:31:34.219Z,61.30
2022-08-21T17:34:07.217Z,60.80
2022-08-21T17:36:38.343Z,62.00
2022-08-21T17:39:26.390Z,64.20
2022-08-21T17:42:20.567Z,66.40
2022-08-21T17:44:56.941Z,63.50
2022-08-21T17:47:31.009Z,65.20
2022-08-21T17:50:10.333Z,67.50
2022-08-21T17:52:40.328Z,68.40
2022-08-21T17:55:07.912Z,69.00
2022-08-21T17:57:42.583Z,69.60
2022-08-21T18:00:18.012Z,70.40
2022-08-21T18:02:51.402Z,72.60
2022-08-21T18:05:18.883Z,73.10
2022-08-21T18:07:54.928Z,73.80
2022-08-21T18:10:32.593Z,74.10
2022-08-21T18:13:06.134Z,74.00
2022-08-21T18:15:36.229Z,74.80
2022-08-21T18:18:12.822Z,78.10
2022-08-21T18:20:51.257Z,81.50
2022-08-21T18:23:43.198Z,84.60
2022-08-21T18:26:24.570Z,90.70
2022-08-21T18:29:13.635Z,94.30
2022-08-21T18:31:48.104Z,97.70
2022-08-21T18:34:57.820Z,99.90
2022-08-21T18:37:29.716Z,99.90
2022-08-21T18:39:57.456Z,99.90
2022-08-21T18:42:33.719Z,99.90
2022-08-21T18:45:07.537Z,99.90
2022-08-21T18:47:49.411Z,99.90
2022-08-21T18:50:28.101Z,99.90
2022-08-21T18:53:04.445Z,99.90
2022-08-21T18:55:57.877Z,99.90
2022-08-21T18:58:37.972Z,99.90
2022-08-21T19:01:08.116Z,99.90
2022-08-21T19:03:57.261Z,99.90
2022-08-21T19:06:46.191Z,99.90
2022-08-21T19:12:00.449Z,99.90
2022-08-21T19:14:28.321Z,99.90
2022-08-21T19:16:55.290Z,99.90
2022-08-21T19:19:22.424Z,99.90
2022-08-21T19:21:49.623Z,99.90
2022-08-21T19:24:23.092Z,99.90
2022-08-21T19:26:50.385Z,99.90
2022-08-21T19:29:35.149Z,99.90
2022-08-21T19:32:05.588Z,99.90
2022-08-21T19:34:34.851Z,99.90
2022-08-21T19:37:02.006Z,99.90
2022-08-21T19:39:30.858Z,99.90
2022-08-21T19:41:59.590Z,99.90
2022-08-21T19:44:29.645Z,99.90
2022-08-21T19:46:58.382Z,99.90
2022-08-21T19:49:29.185Z,99.90
2022-08-21T19:52:01.540Z,99.90
2022-08-21T19:54:31.229Z,99.90
2022-08-21T19:57:03.812Z,99.90
2022-08-21T19:59:31.541Z,99.90
2022-08-21T20:01:58.586Z,99.90
2022-08-21T20:04:25.639Z,99.90
2022-08-21T20:06:55.276Z,99.90
2022-08-21T20:09:22.537Z,99.90
2022-08-21T20:11:52.890Z,99.90
2022-08-21T20:14:26.001Z,99.90
2022-08-21T20:17:02.459Z,99.90
2022-08-21T20:19:31.014Z,99.90
2022-08-21T20:21:59.509Z,99.90
2022-08-21T20:24:27.414Z,99.90
2022-08-21T20:26:55.013Z,99.90
2022-08-21T20:29:24.600Z,99.90
2022-08-21T20:32:12.051Z,99.90
2022-08-21T20:34:45.110Z,99.90
2022-08-21T20:37:22.130Z,99.90
2022-08-21T20:40:01.786Z,99.90
2022-08-21T20:42:28.787Z,99.90
2022-08-21T20:44:55.752Z,99.90
2022-08-21T20:47:22.772Z,99.90
2022-08-21T20:49:56.262Z,99.90
2022-08-21T20:52:27.078Z,99.90
2022-08-21T20:54:59.699Z,99.90
2022-08-21T20:57:43.619Z,99.90
2022-08-21T21:00:16.339Z,99.90
2022-08-21T21:03:04.133Z,99.90
2022-08-21T21:05:39.567Z,99.90
2022-08-21T21:08:26.415Z,99.90
2022-08-21T21:11:05.337Z,99.90
2022-08-21T21:13:56.575Z,99.90
2022-08-21T21:16:28.066Z,99.90
2022-08-21T21:19:06.206Z,99.90
2022-08-21T21:21:51.570Z,99.90
2022-08-21T21:24:43.235Z,99.90
2022-08-21T21:27:22.392Z,99.90
2022-08-21T21:30:02.025Z,99.90
2022-08-21T21:32:29.065Z,99.90
2022-08-21T21:34:56.337Z,99.90
2022-08-21T21:37:42.150Z,99.90
2022-08-21T21:40:24.663Z,99.90
2022-08-21T21:43:16.269Z,99.90
2022-08-21T21:46:19.420Z,99.90
2022-08-21T21:49:14.017Z,99.90
2022-08-21T21:51:43.807Z,99.90
2022-08-21T21:54:35.776Z,99.90
2022-08-21T21:57:37.486Z,99.90
2022-08-21T22:00:19.949Z,99.90
2022-08-21T22:02:55.131Z,99.90
2022-08-21T22:05:44.964Z,99.90
2022-08-21T22:08:21.119Z,99.90
2022-08-21T22:11:28.500Z,99.90
2022-08-21T22:14:06.088Z,99.90
2022-08-21T22:16:36.129Z,99.90
2022-08-21T22:19:34.830Z,99.90
2022-08-21T22:22:16.398Z,99.90
2022-08-21T22:24:50.590Z,99.90
2022-08-21T22:27:35.422Z,99.90
2022-08-21T22:30:07.235Z,99.90
2022-08-21T22:32:39.237Z,99.90
2022-08-21T22:35:26.123Z,99.90
2022-08-21T22:37:57.500Z,99.90
2022-08-21T22:40:27.626Z,99.90
2022-08-21T22:46:09.006Z,99.90
2022-08-21T22:48:46.560Z,99.90
2022-08-21T22:51:35.691Z,99.90
2022-08-21T22:54:04.369Z,99.90
2022-08-21T22:56:49.434Z,99.90
2022-08-21T22:59:32.474Z,99.90
2022-08-21T23:02:21.859Z,99.90
2022-08-21T23:04:50.087Z,99.90
2022-08-21T23:07:49.756Z,99.90
2022-08-21T23:10:19.960Z,99.90
2022-08-21T23:12:54.265Z,99.90
2022-08-21T23:15:21.709Z,99.90
2022-08-21T23:18:12.199Z,99.90
2022-08-21T23:20:59.154Z,99.90
2022-08-21T23:23:28.955Z,99.90
2022-08-21T23:25:58.870Z,99.90
2022-08-21T23:28:41.047Z,99.90
2022-08-21T23:31:41.003Z,99.90
2022-08-21T23:34:43.632Z,99.90
2022-08-21T23:37:48.342Z,99.90
2022-08-21T23:40:38.829Z,99.90
2022-08-21T23:43:17.606Z,99.90
2022-08-21T23:46:15.307Z,99.90
2022-08-21T23:49:08.412Z,99.90
2022-08-21T23:52:00.151Z,99.90
2022-08-21T23:54:47.136Z,99.90
2022-08-21T23:57:18.896Z,99.90
